| time (UTC) | temp F | wind direction | speed MPH | gust MPH | rain 1hr in | rain 24hr in | rain mn in | humidity % | barometer mb |
| 20260510230026 | 79 | 132 | 15.0 | 30.0 | 0.00 | 0.00 | 0.00 | 23 | 1019.5 |
| 20260510225017 | 79 | 134 | 22.0 | 43.0 | 0.00 | 0.00 | 0.00 | 24 | 1019.5 |
| 20260510224026 | 80 | 138 | 18.0 | 35.0 | 0.00 | 0.00 | 0.00 | 22 | 1019.4 |
| 20260510223016 | 80 | 138 | 13.0 | 40.0 | 0.00 | 0.00 | 0.00 | 23 | 1019.4 |
| 20260510222025 | 79 | 167 | 19.0 | 40.0 | 0.00 | 0.00 | 0.00 | 23 | 1019.5 |
| 20260510221018 | 80 | 160 | 17.0 | 40.0 | 0.00 | 0.00 | 0.00 | 23 | 1019.5 |
| 20260510220025 | 81 | 136 | 17.0 | 45.0 | 0.00 | 0.00 | 0.00 | 21 | 1019.5 |
| 20260510215038 | 81 | 143 | 15.0 | 33.0 | 0.00 | 0.00 | 0.00 | 22 | 1019.6 |
| 20260510214027 | 80 | 153 | 16.0 | 30.0 | 0.00 | 0.00 | 0.00 | 22 | 1019.7 |
| 20260510213018 | 79 | 104 | 18.0 | 35.0 | 0.00 | 0.00 | 0.00 | 24 | 1019.9 |
| 20260510212026 | 84 | 138 | 13.0 | 35.0 | 0.00 | 0.00 | 0.00 | 14 | 1020.1 |
| 20260510211017 | 83 | 202 | 5.0 | 15.0 | 0.00 | 0.00 | 0.00 | 11 | 1019.9 |
| 20260510210026 | 84 | 235 | 7.0 | 15.0 | 0.00 | 0.00 | 0.00 | 11 | 1019.9 |
| 20260510205018 | 83 | 348 | 4.0 | 13.0 | 0.00 | 0.00 | 0.00 | 10 | 1020.1 |
| 20260510204045 | 82 | 6 | 5.0 | 20.0 | 0.00 | 0.00 | 0.00 | 10 | 1020.1 |
| 20260510203034 | 84 | 26 | 5.0 | 20.0 | 0.00 | 0.00 | 0.00 | 10 | 1020.2 |
| 20260510202045 | 84 | 24 | 5.0 | 10.0 | 0.00 | 0.00 | 0.00 | 10 | 1020.2 |
| 20260510201017 | 82 | 111 | 4.0 | 10.0 | 0.00 | 0.00 | 0.00 | 10 | 1020.2 |
| 20260510200026 | 83 | 185 | 6.0 | 18.0 | 0.00 | 0.00 | 0.00 | 10 | 1020.3 |
| 20260510195017 | 81 | 233 | 4.0 | 8.0 | 0.00 | 0.00 | 0.00 | 12 | 1020.3 |
| 20260510194046 | 81 | 64 | 5.0 | 13.0 | 0.00 | 0.00 | 0.00 | 13 | 1020.4 |
| 20260510193018 | 79 | 83 | 8.0 | 30.0 | 0.00 | 0.00 | 0.00 | 12 | 1020.4 |
| 20260510192025 | 82 | 93 | 6.0 | 13.0 | 0.00 | 0.00 | 0.00 | 13 | 1020.5 |
| 20260510191038 | 82 | 343 | 9.0 | 20.0 | 0.00 | 0.00 | 0.00 | 13 | 1020.6 |
| 20260510190025 | 83 | 54 | 4.0 | 10.0 | 0.00 | 0.00 | 0.00 | 13 | 1020.6 |
| 20260510185038 | 82 | 119 | 7.0 | 13.0 | 0.00 | 0.00 | 0.00 | 13 | 1020.7 |
| 20260510184107 | 82 | 183 | 6.0 | 15.0 | 0.00 | 0.00 | 0.00 | 14 | 1020.7 |
| 20260510183017 | 82 | 54 | 1.0 | 8.0 | 0.00 | 0.00 | 0.00 | 13 | 1020.7 |
| 20260510182026 | 79 | 18 | 5.0 | 13.0 | 0.00 | 0.00 | 0.00 | 14 | 1020.9 |
| 20260510181057 | 80 | 277 | 7.0 | 20.0 | 0.00 | 0.00 | 0.00 | 16 | 1020.9 |
| 20260510180025 | 80 | 295 | 8.0 | 30.0 | 0.00 | 0.00 | 0.00 | 16 | 1021.0 |
| 20260510175019 | 78 | 347 | 8.0 | 18.0 | 0.00 | 0.00 | 0.00 | 17 | 1021.0 |
| 20260510174045 | 78 | 205 | 6.0 | 15.0 | 0.00 | 0.00 | 0.00 | 17 | 1021.0 |
| 20260510173154 | 80 | 201 | 6.0 | 15.0 | 0.00 | 0.00 | 0.00 | 18 | 1021.0 |
| 20260510172027 | 79 | 196 | 4.0 | 10.0 | 0.00 | 0.00 | 0.00 | 19 | 1021.0 |
| 20260510171018 | 80 | 157 | 2.0 | 10.0 | 0.00 | 0.00 | 0.00 | 18 | 1021.1 |
| 20260510170026 | 78 | 101 | 5.0 | 15.0 | 0.00 | 0.00 | 0.00 | 19 | 1021.1 |
| 20260510165017 | 77 | 59 | 1.0 | 8.0 | 0.00 | 0.00 | 0.00 | 19 | 1021.0 |
| 20260510164046 | 76 | 297 | 6.0 | 10.0 | 0.00 | 0.00 | 0.00 | 19 | 1021.0 |
| 20260510163019 | 78 | 32 | 1.0 | 8.0 | 0.00 | 0.00 | 0.00 | 18 | 1021.0 |
| 20260510162046 | 75 | 31 | 5.0 | 15.0 | 0.00 | 0.00 | 0.00 | 19 | 1020.9 |
| 20260510161018 | 74 | 18 | 5.0 | 15.0 | 0.00 | 0.00 | 0.00 | 20 | 1020.9 |
| 20260510160027 | 73 | 357 | 9.0 | 20.0 | 0.00 | 0.00 | 0.00 | 20 | 1020.9 |
| 20260510155018 | 73 | 328 | 10.0 | 18.0 | 0.00 | 0.00 | 0.00 | 21 | 1020.8 |
| 20260510154027 | 72 | 344 | 9.0 | 15.0 | 0.00 | 0.00 | 0.00 | 21 | 1020.7 |
| 20260510153104 | 71 | 345 | 10.0 | 18.0 | 0.00 | 0.00 | 0.00 | 21 | 1020.7 |
| 20260510152026 | 71 | 349 | 10.0 | 20.0 | 0.00 | 0.00 | 0.00 | 21 | 1020.6 |
| 20260510151037 | 71 | 6 | 8.0 | 18.0 | 0.00 | 0.00 | 0.00 | 21 | 1020.4 |
| 20260510150026 | 71 | 8 | 9.0 | 18.0 | 0.00 | 0.00 | 0.00 | 21 | 1020.5 |
| 20260510145019 | 70 | 24 | 7.0 | 18.0 | 0.00 | 0.00 | 0.00 | 22 | 1020.3 |
| 20260510144026 | 70 | 348 | 8.0 | 18.0 | 0.00 | 0.00 | 0.00 | 22 | 1020.2 |
| 20260510143018 | 69 | 1 | 7.0 | 13.0 | 0.00 | 0.00 | 0.00 | 24 | 1020.1 |
| 20260510142027 | 69 | 27 | 5.0 | 13.0 | 0.00 | 0.00 | 0.00 | 25 | 1020.1 |
| 20260510141018 | 69 | 347 | 2.0 | 8.0 | 0.00 | 0.00 | 0.00 | 25 | 1020.0 |
| 20260510140027 | 69 | 239 | 2.0 | 5.0 | 0.00 | 0.00 | 0.00 | 25 | 1020.0 |
| 20260510135017 | 69 | 0.0 | 0.0 | 0.00 | 0.00 | 0.00 | 27 | 1019.9 | |
| 20260510134026 | 68 | 108 | 1.0 | 5.0 | 0.00 | 0.00 | 0.00 | 26 | 1019.8 |
| 20260510133019 | 68 | 0.0 | 0.0 | 0.00 | 0.00 | 0.00 | 27 | 1019.7 | |
| 20260510132026 | 67 | 0.0 | 0.0 | 0.00 | 0.00 | 0.00 | 28 | 1019.6 | |
| 20260510131018 | 64 | 108 | 2.0 | 5.0 | 0.00 | 0.00 | 0.00 | 28 | 1019.4 |
| 20260510130047 | 63 | 108 | 3.0 | 5.0 | 0.00 | 0.00 | 0.00 | 28 | 1019.4 |
| 20260510125018 | 63 | 124 | 1.0 | 3.0 | 0.00 | 0.00 | 0.00 | 28 | 1019.2 |
| 20260510124027 | 62 | 117 | 0.0 | 3.0 | 0.00 | 0.00 | 0.00 | 28 | 1019.1 |
| 20260510123018 | 63 | 97 | 1.0 | 5.0 | 0.00 | 0.00 | 0.00 | 28 | 1019.0 |
| 20260510122026 | 64 | 325 | 2.0 | 15.0 | 0.00 | 0.00 | 0.00 | 29 | 1018.8 |
| 20260510121039 | 65 | 97 | 4.0 | 8.0 | 0.00 | 0.00 | 0.00 | 26 | 1018.6 |
| 20260510120026 | 66 | 88 | 4.0 | 8.0 | 0.00 | 0.00 | 0.00 | 26 | 1018.4 |
| 20260510115019 | 67 | 103 | 5.0 | 8.0 | 0.00 | 0.00 | 0.00 | 25 | 1018.4 |
| 20260510114025 | 68 | 101 | 5.0 | 13.0 | 0.00 | 0.00 | 0.00 | 23 | 1018.3 |
| 20260510113018 | 69 | 104 | 9.0 | 18.0 | 0.00 | 0.00 | 0.00 | 22 | 1018.2 |
| 20260510112027 | 67 | 112 | 9.0 | 23.0 | 0.00 | 0.00 | 0.00 | 23 | 1018.2 |
| 20260510111018 | 67 | 144 | 6.0 | 13.0 | 0.00 | 0.00 | 0.00 | 23 | 1018.4 |
| 20260510110026 | 66 | 125 | 7.0 | 13.0 | 0.00 | 0.00 | 0.00 | 24 | 1018.4 |
| 20260510105017 | 65 | 157 | 3.0 | 10.0 | 0.00 | 0.00 | 0.00 | 25 | 1019.0 |
| 20260510104042 | 65 | 98 | 2.0 | 5.0 | 0.00 | 0.00 | 0.00 | 25 | 1019.0 |
| 20260510103019 | 65 | 91 | 3.0 | 5.0 | 0.00 | 0.00 | 0.00 | 25 | 1018.6 |
| 20260510102025 | 66 | 0.0 | 0.0 | 0.00 | 0.00 | 0.00 | 24 | 1018.5 | |
| 20260510101018 | 66 | 95 | 5.0 | 8.0 | 0.00 | 0.00 | 0.00 | 24 | 1018.1 |
| 20260510100025 | 66 | 121 | 5.0 | 10.0 | 0.00 | 0.00 | 0.00 | 23 | 1018.0 |
| 20260510095038 | 65 | 135 | 4.0 | 8.0 | 0.00 | 0.00 | 0.00 | 23 | 1018.0 |
| 20260510094027 | 65 | 130 | 1.0 | 5.0 | 0.00 | 0.00 | 0.00 | 23 | 1018.0 |
| 20260510093018 | 65 | 95 | 0.0 | 3.0 | 0.00 | 0.00 | 0.00 | 23 | 1018.1 |
| 20260510092026 | 66 | 52 | 2.0 | 8.0 | 0.00 | 0.00 | 0.00 | 23 | 1018.0 |
| 20260510091035 | 67 | 91 | 0.0 | 3.0 | 0.00 | 0.00 | 0.00 | 22 | 1017.8 |
| 20260510090106 | 67 | 7 | 2.0 | 8.0 | 0.00 | 0.00 | 0.00 | 22 | 1017.6 |
| 20260510085019 | 68 | 163 | 1.0 | 5.0 | 0.00 | 0.00 | 0.00 | 22 | 1017.4 |
| 20260510084025 | 68 | 63 | 2.0 | 8.0 | 0.00 | 0.00 | 0.00 | 21 | 1017.2 |
| 20260510083018 | 69 | 29 | 5.0 | 13.0 | 0.00 | 0.00 | 0.00 | 20 | 1017.0 |
| 20260510082027 | 68 | 358 | 7.0 | 18.0 | 0.00 | 0.00 | 0.00 | 20 | 1017.0 |
| 20260510081018 | 68 | 331 | 7.0 | 15.0 | 0.00 | 0.00 | 0.00 | 20 | 1016.8 |
| 20260510080026 | 67 | 12 | 3.0 | 8.0 | 0.00 | 0.00 | 0.00 | 20 | 1016.7 |
| 20260510075017 | 67 | 66 | 2.0 | 10.0 | 0.00 | 0.00 | 0.00 | 21 | 1016.8 |
| 20260510074026 | 66 | 340 | 9.0 | 18.0 | 0.00 | 0.00 | 0.00 | 21 | 1016.8 |
| 20260510073039 | 66 | 331 | 9.0 | 23.0 | 0.00 | 0.00 | 0.00 | 21 | 1016.7 |
| 20260510072042 | 66 | 348 | 9.0 | 18.0 | 0.00 | 0.00 | 0.00 | 20 | 1016.6 |
| 20260510071054 | 67 | 346 | 6.0 | 13.0 | 0.00 | 0.00 | 0.00 | 20 | 1016.5 |
| 20260510070028 | 68 | 353 | 6.0 | 13.0 | 0.00 | 0.00 | 0.00 | 19 | 1016.4 |
| 20260510065018 | 70 | 344 | 6.0 | 15.0 | 0.00 | 0.00 | 0.00 | 19 | 1016.2 |
| 20260510064027 | 71 | 353 | 8.0 | 18.0 | 0.00 | 0.00 | 0.00 | 18 | 1016.1 |
| 20260510063017 | 71 | 7 | 10.0 | 20.0 | 0.00 | 0.00 | 0.00 | 17 | 1016.0 |
| 20260510062026 | 71 | 357 | 10.0 | 20.0 | 0.00 | 0.00 | 0.00 | 17 | 1015.9 |
| 20260510061019 | 70 | 348 | 13.0 | 23.0 | 0.00 | 0.00 | 0.00 | 16 | 1015.9 |
| 20260510060106 | 70 | 3 | 10.0 | 18.0 | 0.00 | 0.00 | 0.00 | 16 | 1015.8 |
| 20260510055019 | 70 | 356 | 10.0 | 18.0 | 0.00 | 0.00 | 0.00 | 16 | 1015.8 |
| 20260510054025 | 70 | 359 | 7.0 | 15.0 | 0.00 | 0.00 | 0.00 | 17 | 1015.7 |
| 20260510053018 | 70 | 339 | 10.0 | 18.0 | 0.00 | 0.00 | 0.00 | 16 | 1015.6 |
| 20260510052107 | 71 | 343 | 7.0 | 18.0 | 0.00 | 0.00 | 0.00 | 15 | 1015.4 |
| 20260510051018 | 71 | 0 | 6.0 | 15.0 | 0.00 | 0.00 | 0.00 | 15 | 1015.3 |
| 20260510050047 | 72 | 12 | 6.0 | 13.0 | 0.00 | 0.00 | 0.00 | 15 | 1015.2 |
| 20260510045020 | 73 | 358 | 5.0 | 13.0 | 0.00 | 0.00 | 0.00 | 14 | 1015.2 |
| 20260510044026 | 74 | 18 | 6.0 | 13.0 | 0.00 | 0.00 | 0.00 | 14 | 1015.2 |
| 20260510043019 | 74 | 47 | 4.0 | 18.0 | 0.00 | 0.00 | 0.00 | 14 | 1015.1 |
| 20260510042026 | 75 | 35 | 4.0 | 15.0 | 0.00 | 0.00 | 0.00 | 13 | 1015.0 |
| 20260510041018 | 76 | 9 | 8.0 | 20.0 | 0.00 | 0.00 | 0.00 | 13 | 1015.0 |
| 20260510040027 | 75 | 33 | 4.0 | 10.0 | 0.00 | 0.00 | 0.00 | 13 | 1015.0 |
| 20260510035018 | 77 | 5 | 8.0 | 18.0 | 0.00 | 0.00 | 0.00 | 12 | 1015.0 |
| 20260510034027 | 77 | 12 | 6.0 | 23.0 | 0.00 | 0.00 | 0.00 | 13 | 1014.9 |
| 20260510033035 | 77 | 314 | 8.0 | 23.0 | 0.00 | 0.00 | 0.00 | 13 | 1014.7 |
| 20260510032026 | 79 | 324 | 6.0 | 23.0 | 0.00 | 0.00 | 0.00 | 13 | 1014.5 |
| 20260510031119 | 78 | 352 | 11.0 | 28.0 | 0.00 | 0.00 | 0.00 | 13 | 1014.3 |
| 20260510030106 | 78 | 94 | 1.0 | 8.0 | 0.00 | 0.00 | 0.00 | 15 | 1014.2 |
| 20260510025019 | 78 | 79 | 0.0 | 3.0 | 0.00 | 0.00 | 0.00 | 15 | 1014.1 |
| 20260510024027 | 78 | 19 | 2.0 | 10.0 | 0.00 | 0.00 | 0.00 | 14 | 1013.8 |
| 20260510023018 | 79 | 90 | 1.0 | 5.0 | 0.00 | 0.00 | 0.00 | 13 | 1013.6 |
| 20260510022027 | 80 | 48 | 3.0 | 8.0 | 0.00 | 0.00 | 0.00 | 13 | 1013.5 |
| 20260510021114 | 80 | 65 | 2.0 | 8.0 | 0.00 | 0.00 | 0.00 | 13 | 1013.4 |
| 20260510020026 | 80 | 8 | 10.0 | 43.0 | 0.00 | 0.00 | 0.00 | 13 | 1013.5 |
| 20260510015019 | 80 | 17 | 3.0 | 10.0 | 0.00 | 0.00 | 0.00 | 14 | 1013.5 |
| 20260510014046 | 81 | 23 | 2.0 | 5.0 | 0.00 | 0.00 | 0.00 | 13 | 1013.3 |
| 20260510013035 | 81 | 14 | 7.0 | 15.0 | 0.00 | 0.00 | 0.00 | 13 | 1013.2 |
| 20260510012026 | 81 | 295 | 16.0 | 35.0 | 0.00 | 0.00 | 0.00 | 13 | 1013.4 |
| 20260510011019 | 81 | 240 | 8.0 | 25.0 | 0.00 | 0.00 | 0.00 | 12 | 1013.2 |
| 20260510010048 | 82 | 290 | 6.0 | 15.0 | 0.00 | 0.00 | 0.00 | 12 | 1013.2 |
| 20260510005018 | 82 | 193 | 5.0 | 15.0 | 0.00 | 0.00 | 0.00 | 11 | 1013.0 |
| 20260510004027 | 82 | 210 | 6.0 | 15.0 | 0.00 | 0.00 | 0.00 | 11 | 1013.0 |
| 20260510003020 | 83 | 325 | 6.0 | 13.0 | 0.00 | 0.00 | 0.00 | 11 | 1012.9 |
| 20260510002026 | 84 | 213 | 5.0 | 18.0 | 0.00 | 0.00 | 0.00 | 11 | 1012.9 |
| 20260510001019 | 85 | 252 | 8.0 | 23.0 | 0.00 | 0.00 | 0.00 | 11 | 1012.9 |
| 20260510000026 | 86 | 276 | 7.0 | 23.0 | 0.00 | 0.00 | 0.00 | 10 | 1012.9 |
| 20260509235019 | 87 | 295 | 17.0 | 35.0 | 0.00 | 0.00 | 0.00 | 10 | 1012.9 |
| 20260509234028 | 86 | 297 | 10.0 | 25.0 | 0.00 | 0.00 | 0.00 | 10 | 1012.9 |
| 20260509233019 | 85 | 303 | 18.0 | 38.0 | 0.00 | 0.00 | 0.00 | 10 | 1013.0 |
| 20260509232027 | 86 | 307 | 13.0 | 30.0 | 0.00 | 0.00 | 0.00 | 10 | 1013.0 |
| 20260509231018 | 85 | 301 | 12.0 | 35.0 | 0.00 | 0.00 | 0.00 | 10 | 1013.1 |